To NAV CANADA Home Page Login to a new session Search on AWWS site Feedback and Comments Disclaimer Vers la page française équivalente Tips FAQ What's new on the site To the Forecasts and Observations / NOTAM section To "File a Flight Plan" website Publications and other links Update of the User's profile FIC Telephone Numbers My Weather Data Folder Route Weather Data Regional Weather Data Local Weather Data To the Forecasts and Observations / NOTAM section
Request Generated 02/11/2016 at 10:34:37 UTC . Weather information available at that time is displayed.

METAR/TAF

MAYO/YT    

METAR CYMA 111000Z 01011G17KT 15SM -SN DRSN OVC040 M04/M05 A2975 RMK
SC8 SLP113=
METAR CYMA 110900Z 02008G16KT 350V050 15SM -SN OVC040 M04/M06 A2975
RMK SC8 PCPN VRY LGT SLP114=
METAR CYMA 110800Z 03009G15KT 350V050 15SM -SN OVC040 M04/M06 A2974
RMK SC8 SLP113=

TAF CYMA 110538Z 1106/1118 VRB03KT P6SM OVC050 TEMPO 1106/1114 2SM
-SN VV012
FM111400 VRB03KT P6SM SCT030 BKN060 TEMPO 1114/1118 5SM -SN
OVC030
RMK NXT FCST BY 111200Z=
Your time UTC time
Weather data provided by Environment Canada and NAV CANADA